sensor_id;sensor_type;location;lat;lon;timestamp;P1;durP1;ratioP1;P2;durP2;ratioP2
6638;SDS011;3355;52.882;8.430;2022-12-29T07:06:22;3.90;;;1.50;;
6638;SDS011;3355;52.882;8.430;2022-12-29T07:08:52;2.30;;;1.00;;
6638;SDS011;3355;52.882;8.430;2022-12-29T07:11:20;4.83;;;1.23;;
6638;SDS011;3355;52.882;8.430;2022-12-29T07:13:47;2.90;;;1.33;;
6638;SDS011;3355;52.882;8.430;2022-12-29T07:16:13;4.20;;;1.10;;
6638;SDS011;3355;52.882;8.430;2022-12-29T07:18:40;3.40;;;1.10;;
6638;SDS011;3355;52.882;8.430;2022-12-29T07:21:07;2.50;;;0.90;;
6638;SDS011;3355;52.882;8.430;2022-12-29T07:23:34;3.37;;;1.20;;
6638;SDS011;3355;52.882;8.430;2022-12-29T07:26:01;2.77;;;1.00;;
6638;SDS011;3355;52.882;8.430;2022-12-29T07:28:30;3.07;;;1.20;;
6638;SDS011;3355;52.882;8.430;2022-12-29T07:30:57;2.60;;;1.23;;
6638;SDS011;3355;52.882;8.430;2022-12-29T07:33:27;3.60;;;1.20;;
6638;SDS011;3355;52.882;8.430;2022-12-29T07:35:55;2.73;;;1.00;;
6638;SDS011;3355;52.882;8.430;2022-12-29T07:38:24;3.17;;;0.90;;
6638;SDS011;3355;52.882;8.430;2022-12-29T07:40:55;3.63;;;0.90;;
6638;SDS011;3355;52.882;8.430;2022-12-29T07:43:22;5.20;;;0.97;;
6638;SDS011;3355;52.882;8.430;2022-12-29T07:45:49;2.57;;;1.03;;
6638;SDS011;3355;52.882;8.430;2022-12-29T07:48:15;2.90;;;1.20;;
6638;SDS011;3355;52.882;8.430;2022-12-29T07:50:42;4.60;;;1.73;;
6638;SDS011;3355;52.882;8.430;2022-12-29T07:53:09;2.43;;;1.03;;
6638;SDS011;3355;52.882;8.430;2022-12-29T07:55:35;3.20;;;1.10;;
6638;SDS011;3355;52.882;8.430;2022-12-29T07:58:03;3.60;;;0.90;;
6638;SDS011;3355;52.882;8.430;2022-12-29T08:00:30;3.40;;;1.10;;
6638;SDS011;3355;52.882;8.430;2022-12-29T08:02:56;4.33;;;1.13;;
6638;SDS011;3355;52.882;8.430;2022-12-29T08:05:23;3.20;;;0.93;;
6638;SDS011;3355;52.882;8.430;2022-12-29T08:07:49;2.63;;;0.80;;
6638;SDS011;3355;52.882;8.430;2022-12-29T08:10:16;5.77;;;1.23;;
6638;SDS011;3355;52.882;8.430;2022-12-29T08:12:43;4.93;;;1.00;;
6638;SDS011;3355;52.882;8.430;2022-12-29T08:15:11;2.70;;;0.97;;
6638;SDS011;3355;52.882;8.430;2022-12-29T08:17:41;4.70;;;1.07;;
6638;SDS011;3355;52.882;8.430;2022-12-29T08:20:08;3.50;;;1.10;;
6638;SDS011;3355;52.882;8.430;2022-12-29T08:22:35;3.00;;;1.40;;
6638;SDS011;3355;52.882;8.430;2022-12-29T08:25:02;5.70;;;1.00;;
6638;SDS011;3355;52.882;8.430;2022-12-29T08:27:29;5.40;;;1.17;;
6638;SDS011;3355;52.882;8.430;2022-12-29T08:29:56;2.30;;;1.00;;
6638;SDS011;3355;52.882;8.430;2022-12-29T08:32:27;3.57;;;1.20;;
6638;SDS011;3355;52.882;8.430;2022-12-29T08:34:54;2.67;;;1.10;;
6638;SDS011;3355;52.882;8.430;2022-12-29T08:37:23;2.50;;;0.90;;
6638;SDS011;3355;52.882;8.430;2022-12-29T08:39:50;3.90;;;1.47;;
6638;SDS011;3355;52.882;8.430;2022-12-29T08:42:19;4.40;;;1.30;;
6638;SDS011;3355;52.882;8.430;2022-12-29T08:44:46;6.13;;;2.03;;
6638;SDS011;3355;52.882;8.430;2022-12-29T08:47:12;4.10;;;1.40;;
6638;SDS011;3355;52.882;8.430;2022-12-29T08:49:40;3.10;;;1.20;;
6638;SDS011;3355;52.882;8.430;2022-12-29T08:52:07;4.23;;;1.37;;
6638;SDS011;3355;52.882;8.430;2022-12-29T08:54:36;12.10;;;1.60;;
6638;SDS011;3355;52.882;8.430;2022-12-29T08:57:03;3.37;;;1.23;;
6638;SDS011;3355;52.882;8.430;2022-12-29T08:59:29;6.10;;;1.17;;
6638;SDS011;3355;52.882;8.430;2022-12-29T09:01:56;3.00;;;1.30;;
6638;SDS011;3355;52.882;8.430;2022-12-29T09:04:23;3.80;;;1.00;;
6638;SDS011;3355;52.882;8.430;2022-12-29T09:06:51;6.00;;;1.80;;
6638;SDS011;3355;52.882;8.430;2022-12-29T09:09:17;4.43;;;1.27;;
6638;SDS011;3355;52.882;8.430;2022-12-29T09:11:44;3.00;;;0.90;;
6638;SDS011;3355;52.882;8.430;2022-12-29T09:14:26;4.83;;;1.07;;
6638;SDS011;3355;52.882;8.430;2022-12-29T09:16:53;3.63;;;1.27;;
6638;SDS011;3355;52.882;8.430;2022-12-29T09:19:37;4.70;;;1.07;;
6638;SDS011;3355;52.882;8.430;2022-12-29T09:22:05;7.43;;;1.07;;
6638;SDS011;3355;52.882;8.430;2022-12-29T09:24:32;3.67;;;1.27;;
6638;SDS011;3355;52.882;8.430;2022-12-29T09:26:58;3.83;;;1.03;;
6638;SDS011;3355;52.882;8.430;2022-12-29T09:29:25;4.40;;;1.07;;
6638;SDS011;3355;52.882;8.430;2022-12-29T09:31:51;2.70;;;1.00;;
6638;SDS011;3355;52.882;8.430;2022-12-29T09:34:18;3.70;;;1.83;;
6638;SDS011;3355;52.882;8.430;2022-12-29T09:36:44;5.90;;;1.43;;
6638;SDS011;3355;52.882;8.430;2022-12-29T09:39:13;5.10;;;1.20;;
6638;SDS011;3355;52.882;8.430;2022-12-29T09:41:41;6.53;;;1.30;;
6638;SDS011;3355;52.882;8.430;2022-12-29T09:44:12;4.30;;;1.00;;
6638;SDS011;3355;52.882;8.430;2022-12-29T09:46:44;5.70;;;1.40;;
6638;SDS011;3355;52.882;8.430;2022-12-29T09:49:15;6.37;;;1.17;;
6638;SDS011;3355;52.882;8.430;2022-12-29T09:51:50;7.03;;;1.37;;
6638;SDS011;3355;52.882;8.430;2022-12-29T09:54:34;2.33;;;0.67;;
6638;SDS011;3355;52.882;8.430;2022-12-29T09:57:04;4.23;;;0.77;;
6638;SDS011;3355;52.882;8.430;2022-12-29T09:59:41;2.73;;;0.70;;
6638;SDS011;3355;52.882;8.430;2022-12-29T10:02:12;3.50;;;0.77;;
6638;SDS011;3355;52.882;8.430;2022-12-29T10:04:46;3.10;;;1.00;;
6638;SDS011;3355;52.882;8.430;2022-12-29T10:07:14;1.90;;;0.50;;
6638;SDS011;3355;52.882;8.430;2022-12-29T10:09:49;2.10;;;0.63;;
6638;SDS011;3355;52.882;8.430;2022-12-29T10:12:23;3.97;;;1.40;;
6638;SDS011;3355;52.882;8.430;2022-12-29T10:15:02;2.60;;;0.70;;
6638;SDS011;3355;52.882;8.430;2022-12-29T10:17:34;3.30;;;0.60;;
6638;SDS011;3355;52.882;8.430;2022-12-29T10:20:12;2.37;;;0.60;;
6638;SDS011;3355;52.882;8.430;2022-12-29T10:22:47;2.53;;;0.80;;
6638;SDS011;3355;52.882;8.430;2022-12-29T10:25:24;3.37;;;1.03;;
6638;SDS011;3355;52.882;8.430;2022-12-29T10:27:53;3.60;;;1.20;;
6638;SDS011;3355;52.882;8.430;2022-12-29T10:30:22;6.13;;;1.20;;
6638;SDS011;3355;52.882;8.430;2022-12-29T10:32:49;3.50;;;1.00;;
6638;SDS011;3355;52.882;8.430;2022-12-29T10:35:20;4.13;;;1.30;;
6638;SDS011;3355;52.882;8.430;2022-12-29T10:37:49;3.20;;;1.23;;
6638;SDS011;3355;52.882;8.430;2022-12-29T10:40:19;5.77;;;1.43;;
6638;SDS011;3355;52.882;8.430;2022-12-29T10:42:54;4.47;;;1.50;;
6638;SDS011;3355;52.882;8.430;2022-12-29T10:45:21;5.50;;;1.87;;
6638;SDS011;3355;52.882;8.430;2022-12-29T10:47:51;3.43;;;1.40;;
6638;SDS011;3355;52.882;8.430;2022-12-29T10:50:20;4.20;;;1.30;;
6638;SDS011;3355;52.882;8.430;2022-12-29T10:52:47;3.47;;;1.00;;
6638;SDS011;3355;52.882;8.430;2022-12-29T10:55:15;5.67;;;2.50;;
6638;SDS011;3355;52.882;8.430;2022-12-29T10:57:45;6.57;;;1.50;;
6638;SDS011;3355;52.882;8.430;2022-12-29T11:00:12;7.60;;;1.50;;
6638;SDS011;3355;52.882;8.430;2022-12-29T11:02:59;3.27;;;1.20;;
6638;SDS011;3355;52.882;8.430;2022-12-29T11:05:41;4.17;;;1.13;;
6638;SDS011;3355;52.882;8.430;2022-12-29T11:08:12;6.97;;;1.83;;
6638;SDS011;3355;52.882;8.430;2022-12-29T11:10:41;7.67;;;1.87;;
6638;SDS011;3355;52.882;8.430;2022-12-29T11:13:13;5.20;;;1.20;;
6638;SDS011;3355;52.882;8.430;2022-12-29T11:15:41;4.43;;;1.50;;
6638;SDS011;3355;52.882;8.430;2022-12-29T11:18:17;7.03;;;1.50;;
6638;SDS011;3355;52.882;8.430;2022-12-29T11:20:46;6.83;;;1.47;;
6638;SDS011;3355;52.882;8.430;2022-12-29T11:23:21;4.27;;;1.10;;
6638;SDS011;3355;52.882;8.430;2022-12-29T11:25:59;6.07;;;1.50;;
6638;SDS011;3355;52.882;8.430;2022-12-29T11:28:33;5.80;;;1.60;;
6638;SDS011;3355;52.882;8.430;2022-12-29T11:31:00;3.13;;;1.10;;
6638;SDS011;3355;52.882;8.430;2022-12-29T11:33:28;4.90;;;1.17;;
6638;SDS011;3355;52.882;8.430;2022-12-29T11:35:58;6.40;;;1.40;;
6638;SDS011;3355;52.882;8.430;2022-12-29T11:38:30;3.57;;;1.00;;
6638;SDS011;3355;52.882;8.430;2022-12-29T11:41:02;3.40;;;1.30;;
6638;SDS011;3355;52.882;8.430;2022-12-29T11:43:30;5.00;;;1.27;;
6638;SDS011;3355;52.882;8.430;2022-12-29T11:46:00;4.07;;;1.30;;
6638;SDS011;3355;52.882;8.430;2022-12-29T11:48:29;4.67;;;1.43;;
6638;SDS011;3355;52.882;8.430;2022-12-29T11:50:58;3.40;;;1.23;;
6638;SDS011;3355;52.882;8.430;2022-12-29T11:53:25;3.73;;;0.90;;
6638;SDS011;3355;52.882;8.430;2022-12-29T11:55:53;5.50;;;1.20;;
6638;SDS011;3355;52.882;8.430;2022-12-29T11:58:28;3.47;;;1.17;;
6638;SDS011;3355;52.882;8.430;2022-12-29T12:00:57;7.00;;;1.10;;
6638;SDS011;3355;52.882;8.430;2022-12-29T12:03:27;2.80;;;0.80;;
6638;SDS011;3355;52.882;8.430;2022-12-29T12:05:55;10.57;;;1.53;;
6638;SDS011;3355;52.882;8.430;2022-12-29T12:08:28;7.63;;;0.83;;
6638;SDS011;3355;52.882;8.430;2022-12-29T12:11:02;3.70;;;1.17;;
6638;SDS011;3355;52.882;8.430;2022-12-29T12:13:33;4.10;;;1.20;;
6638;SDS011;3355;52.882;8.430;2022-12-29T12:16:07;2.63;;;0.97;;
6638;SDS011;3355;52.882;8.430;2022-12-29T12:18:40;4.50;;;1.30;;
6638;SDS011;3355;52.882;8.430;2022-12-29T12:21:10;5.80;;;1.30;;
6638;SDS011;3355;52.882;8.430;2022-12-29T12:23:48;8.03;;;1.70;;
6638;SDS011;3355;52.882;8.430;2022-12-29T12:26:28;5.60;;;2.00;;
6638;SDS011;3355;52.882;8.430;2022-12-29T12:28:59;4.53;;;1.00;;
6638;SDS011;3355;52.882;8.430;2022-12-29T12:31:39;12.57;;;1.37;;
6638;SDS011;3355;52.882;8.430;2022-12-29T12:34:11;6.53;;;1.13;;
6638;SDS011;3355;52.882;8.430;2022-12-29T12:36:54;2.77;;;1.00;;
6638;SDS011;3355;52.882;8.430;2022-12-29T12:39:31;2.57;;;0.70;;
6638;SDS011;3355;52.882;8.430;2022-12-29T12:42:06;2.80;;;1.00;;
6638;SDS011;3355;52.882;8.430;2022-12-29T12:44:46;3.63;;;0.90;;
6638;SDS011;3355;52.882;8.430;2022-12-29T12:50:24;2.97;;;1.40;;
6638;SDS011;3355;52.882;8.430;2022-12-29T12:56:03;2.10;;;0.70;;
6638;SDS011;3355;52.882;8.430;2022-12-29T12:58:38;3.40;;;0.87;;
6638;SDS011;3355;52.882;8.430;2022-12-29T13:01:14;3.00;;;1.10;;
6638;SDS011;3355;52.882;8.430;2022-12-29T13:03:54;3.57;;;1.60;;
6638;SDS011;3355;52.882;8.430;2022-12-29T13:06:34;3.57;;;1.00;;
6638;SDS011;3355;52.882;8.430;2022-12-29T13:12:06;2.40;;;0.90;;
6638;SDS011;3355;52.882;8.430;2022-12-29T13:14:46;5.10;;;0.90;;
6638;SDS011;3355;52.882;8.430;2022-12-29T13:20:02;3.60;;;1.00;;
6638;SDS011;3355;52.882;8.430;2022-12-29T13:22:48;4.70;;;1.00;;
6638;SDS011;3355;52.882;8.430;2022-12-29T13:25:22;5.07;;;1.00;;
6638;SDS011;3355;52.882;8.430;2022-12-29T13:27:54;2.43;;;1.03;;
6638;SDS011;3355;52.882;8.430;2022-12-29T13:30:27;3.60;;;0.87;;
6638;SDS011;3355;52.882;8.430;2022-12-29T13:32:56;3.50;;;0.90;;
6638;SDS011;3355;52.882;8.430;2022-12-29T13:35:34;3.13;;;1.20;;
6638;SDS011;3355;52.882;8.430;2022-12-29T13:38:12;4.33;;;1.30;;
6638;SDS011;3355;52.882;8.430;2022-12-29T13:40:44;6.00;;;1.20;;
6638;SDS011;3355;52.882;8.430;2022-12-29T13:43:13;4.17;;;0.90;;
6638;SDS011;3355;52.882;8.430;2022-12-29T13:45:40;10.70;;;2.00;;
6638;SDS011;3355;52.882;8.430;2022-12-29T13:48:09;2.40;;;0.70;;
6638;SDS011;3355;52.882;8.430;2022-12-29T13:50:40;3.60;;;0.97;;
6638;SDS011;3355;52.882;8.430;2022-12-29T13:53:11;2.97;;;1.03;;
6638;SDS011;3355;52.882;8.430;2022-12-29T13:55:45;8.00;;;1.00;;
6638;SDS011;3355;52.882;8.430;2022-12-29T13:58:19;2.70;;;0.90;;
6638;SDS011;3355;52.882;8.430;2022-12-29T14:00:51;3.10;;;1.40;;
6638;SDS011;3355;52.882;8.430;2022-12-29T14:03:35;3.17;;;1.23;;
6638;SDS011;3355;52.882;8.430;2022-12-29T14:06:15;2.97;;;1.40;;
6638;SDS011;3355;52.882;8.430;2022-12-29T14:08:46;2.57;;;1.20;;
6638;SDS011;3355;52.882;8.430;2022-12-29T14:11:16;4.90;;;1.87;;
6638;SDS011;3355;52.882;8.430;2022-12-29T14:13:44;3.83;;;1.57;;
6638;SDS011;3355;52.882;8.430;2022-12-29T14:16:21;7.00;;;2.23;;
6638;SDS011;3355;52.882;8.430;2022-12-29T14:18:52;2.80;;;1.53;;
6638;SDS011;3355;52.882;8.430;2022-12-29T14:21:21;9.40;;;1.93;;
6638;SDS011;3355;52.882;8.430;2022-12-29T14:23:52;3.80;;;1.47;;
6638;SDS011;3355;52.882;8.430;2022-12-29T14:26:32;4.83;;;1.40;;
6638;SDS011;3355;52.882;8.430;2022-12-29T14:31:44;3.10;;;1.20;;
6638;SDS011;3355;52.882;8.430;2022-12-29T14:34:34;5.70;;;1.47;;
6638;SDS011;3355;52.882;8.430;2022-12-29T14:37:25;3.60;;;1.40;;
6638;SDS011;3355;52.882;8.430;2022-12-29T14:40:02;4.97;;;2.03;;
6638;SDS011;3355;52.882;8.430;2022-12-29T14:42:37;5.70;;;1.40;;
6638;SDS011;3355;52.882;8.430;2022-12-29T14:45:08;3.90;;;1.30;;
6638;SDS011;3355;52.882;8.430;2022-12-29T14:47:52;5.33;;;2.10;;
6638;SDS011;3355;52.882;8.430;2022-12-29T14:50:21;3.33;;;1.30;;
6638;SDS011;3355;52.882;8.430;2022-12-29T14:52:51;3.83;;;1.40;;
6638;SDS011;3355;52.882;8.430;2022-12-29T14:55:36;4.73;;;1.20;;
6638;SDS011;3355;52.882;8.430;2022-12-29T14:58:05;4.10;;;1.50;;
6638;SDS011;3355;52.882;8.430;2022-12-29T15:00:33;4.10;;;1.60;;
6638;SDS011;3355;52.882;8.430;2022-12-29T15:03:05;3.70;;;1.40;;
6638;SDS011;3355;52.882;8.430;2022-12-29T15:05:36;5.67;;;1.30;;
6638;SDS011;3355;52.882;8.430;2022-12-29T15:08:08;4.93;;;1.37;;
6638;SDS011;3355;52.882;8.430;2022-12-29T15:10:37;9.23;;;4.23;;
6638;SDS011;3355;52.882;8.430;2022-12-29T15:13:13;5.07;;;2.10;;
6638;SDS011;3355;52.882;8.430;2022-12-29T15:15:43;6.10;;;2.17;;
6638;SDS011;3355;52.882;8.430;2022-12-29T15:18:20;3.70;;;1.50;;
6638;SDS011;3355;52.882;8.430;2022-12-29T15:20:51;8.30;;;2.10;;
6638;SDS011;3355;52.882;8.430;2022-12-29T15:23:21;3.23;;;1.57;;
6638;SDS011;3355;52.882;8.430;2022-12-29T15:25:53;3.63;;;1.30;;
6638;SDS011;3355;52.882;8.430;2022-12-29T15:28:21;7.17;;;1.30;;
6638;SDS011;3355;52.882;8.430;2022-12-29T15:30:50;3.97;;;1.80;;
6638;SDS011;3355;52.882;8.430;2022-12-29T15:33:18;5.67;;;1.47;;
6638;SDS011;3355;52.882;8.430;2022-12-29T15:35:48;6.10;;;2.10;;
6638;SDS011;3355;52.882;8.430;2022-12-29T15:38:19;4.47;;;1.90;;
6638;SDS011;3355;52.882;8.430;2022-12-29T15:40:58;10.73;;;1.90;;
6638;SDS011;3355;52.882;8.430;2022-12-29T15:43:38;4.10;;;1.80;;
6638;SDS011;3355;52.882;8.430;2022-12-29T15:46:11;8.13;;;2.10;;
6638;SDS011;3355;52.882;8.430;2022-12-29T15:48:38;4.90;;;1.60;;
6638;SDS011;3355;52.882;8.430;2022-12-29T15:51:09;9.03;;;3.53;;
6638;SDS011;3355;52.882;8.430;2022-12-29T15:53:43;3.07;;;1.40;;
6638;SDS011;3355;52.882;8.430;2022-12-29T15:56:16;6.90;;;3.43;;
6638;SDS011;3355;52.882;8.430;2022-12-29T15:58:43;11.90;;;3.17;;
6638;SDS011;3355;52.882;8.430;2022-12-29T16:01:19;7.37;;;2.10;;
6638;SDS011;3355;52.882;8.430;2022-12-29T16:03:53;5.83;;;1.97;;
6638;SDS011;3355;52.882;8.430;2022-12-29T16:06:27;5.17;;;2.03;;
6638;SDS011;3355;52.882;8.430;2022-12-29T16:09:01;9.40;;;2.20;;
6638;SDS011;3355;52.882;8.430;2022-12-29T16:11:30;6.13;;;2.80;;
6638;SDS011;3355;52.882;8.430;2022-12-29T16:13:59;5.70;;;2.30;;
6638;SDS011;3355;52.882;8.430;2022-12-29T16:16:28;5.87;;;2.50;;
6638;SDS011;3355;52.882;8.430;2022-12-29T16:18:56;4.43;;;2.57;;
6638;SDS011;3355;52.882;8.430;2022-12-29T16:21:25;6.57;;;2.20;;
6638;SDS011;3355;52.882;8.430;2022-12-29T16:23:57;6.77;;;2.40;;
6638;SDS011;3355;52.882;8.430;2022-12-29T16:26:28;5.87;;;2.70;;
6638;SDS011;3355;52.882;8.430;2022-12-29T16:28:55;5.47;;;2.20;;
6638;SDS011;3355;52.882;8.430;2022-12-29T16:31:23;8.30;;;3.10;;
6638;SDS011;3355;52.882;8.430;2022-12-29T16:33:52;6.10;;;2.90;;
6638;SDS011;3355;52.882;8.430;2022-12-29T16:36:23;5.13;;;2.77;;
6638;SDS011;3355;52.882;8.430;2022-12-29T16:39:14;5.70;;;3.10;;
6638;SDS011;3355;52.882;8.430;2022-12-29T16:41:48;9.87;;;2.90;;
6638;SDS011;3355;52.882;8.430;2022-12-29T16:44:18;7.10;;;3.67;;
6638;SDS011;3355;52.882;8.430;2022-12-29T16:46:56;6.70;;;3.23;;
6638;SDS011;3355;52.882;8.430;2022-12-29T16:49:24;7.33;;;3.53;;
6638;SDS011;3355;52.882;8.430;2022-12-29T16:51:52;10.53;;;5.60;;
6638;SDS011;3355;52.882;8.430;2022-12-29T16:54:21;13.20;;;4.17;;
6638;SDS011;3355;52.882;8.430;2022-12-29T16:56:49;7.60;;;3.23;;
6638;SDS011;3355;52.882;8.430;2022-12-29T16:59:21;10.37;;;3.67;;
6638;SDS011;3355;52.882;8.430;2022-12-29T17:01:54;5.87;;;3.07;;
6638;SDS011;3355;52.882;8.430;2022-12-29T17:04:20;4.67;;;2.90;;
6638;SDS011;3355;52.882;8.430;2022-12-29T17:06:50;9.00;;;2.73;;
6638;SDS011;3355;52.882;8.430;2022-12-29T17:09:17;7.63;;;2.90;;
6638;SDS011;3355;52.882;8.430;2022-12-29T17:11:50;8.83;;;3.73;;
6638;SDS011;3355;52.882;8.430;2022-12-29T17:14:31;10.67;;;3.57;;
6638;SDS011;3355;52.882;8.430;2022-12-29T17:17:03;7.90;;;3.33;;
6638;SDS011;3355;52.882;8.430;2022-12-29T17:19:37;5.43;;;2.97;;
6638;SDS011;3355;52.882;8.430;2022-12-29T17:22:08;9.47;;;3.47;;
6638;SDS011;3355;52.882;8.430;2022-12-29T17:24:38;5.87;;;2.80;;
6638;SDS011;3355;52.882;8.430;2022-12-29T17:27:09;6.20;;;2.70;;
6638;SDS011;3355;52.882;8.430;2022-12-29T17:30:03;8.73;;;2.30;;
6638;SDS011;3355;52.882;8.430;2022-12-29T17:32:34;7.43;;;2.53;;
6638;SDS011;3355;52.882;8.430;2022-12-29T17:35:12;8.80;;;3.20;;
6638;SDS011;3355;52.882;8.430;2022-12-29T17:37:43;7.10;;;2.43;;
6638;SDS011;3355;52.882;8.430;2022-12-29T17:40:12;8.40;;;2.80;;
6638;SDS011;3355;52.882;8.430;2022-12-29T17:42:42;4.20;;;3.00;;
6638;SDS011;3355;52.882;8.430;2022-12-29T17:45:15;7.63;;;2.87;;
6638;SDS011;3355;52.882;8.430;2022-12-29T17:47:43;4.20;;;2.27;;
6638;SDS011;3355;52.882;8.430;2022-12-29T17:50:12;4.40;;;2.80;;
6638;SDS011;3355;52.882;8.430;2022-12-29T17:52:41;4.60;;;2.33;;
6638;SDS011;3355;52.882;8.430;2022-12-29T17:55:12;6.80;;;2.10;;
6638;SDS011;3355;52.882;8.430;2022-12-29T17:57:42;2.70;;;1.37;;
6638;SDS011;3355;52.882;8.430;2022-12-29T18:00:13;4.60;;;2.03;;
6638;SDS011;3355;52.882;8.430;2022-12-29T18:02:41;3.87;;;1.60;;
6638;SDS011;3355;52.882;8.430;2022-12-29T18:05:14;8.53;;;4.00;;
6638;SDS011;3355;52.882;8.430;2022-12-29T18:10:46;4.73;;;1.80;;
6638;SDS011;3355;52.882;8.430;2022-12-29T18:13:18;4.10;;;1.67;;
6638;SDS011;3355;52.882;8.430;2022-12-29T18:15:53;3.10;;;1.23;;
6638;SDS011;3355;52.882;8.430;2022-12-29T18:18:21;3.53;;;1.40;;
6638;SDS011;3355;52.882;8.430;2022-12-29T18:23:40;3.03;;;1.70;;
6638;SDS011;3355;52.882;8.430;2022-12-29T18:26:11;4.60;;;1.80;;
6638;SDS011;3355;52.882;8.430;2022-12-29T18:28:48;4.87;;;2.57;;
6638;SDS011;3355;52.882;8.430;2022-12-29T18:31:42;4.33;;;1.90;;
6638;SDS011;3355;52.882;8.430;2022-12-29T18:34:24;4.03;;;1.80;;
6638;SDS011;3355;52.882;8.430;2022-12-29T18:36:54;4.40;;;2.27;;
6638;SDS011;3355;52.882;8.430;2022-12-29T18:39:25;5.73;;;1.83;;
6638;SDS011;3355;52.882;8.430;2022-12-29T18:41:57;5.00;;;2.30;;
6638;SDS011;3355;52.882;8.430;2022-12-29T18:44:25;4.80;;;2.23;;
6638;SDS011;3355;52.882;8.430;2022-12-29T18:46:52;6.63;;;2.27;;
6638;SDS011;3355;52.882;8.430;2022-12-29T18:49:19;5.83;;;2.53;;
6638;SDS011;3355;52.882;8.430;2022-12-29T18:51:46;4.30;;;2.50;;
6638;SDS011;3355;52.882;8.430;2022-12-29T18:54:14;4.90;;;2.70;;
6638;SDS011;3355;52.882;8.430;2022-12-29T18:57:01;4.80;;;2.40;;
6638;SDS011;3355;52.882;8.430;2022-12-29T18:59:43;5.73;;;2.20;;
6638;SDS011;3355;52.882;8.430;2022-12-29T19:02:12;6.03;;;2.63;;
6638;SDS011;3355;52.882;8.430;2022-12-29T19:04:55;5.07;;;2.87;;
6638;SDS011;3355;52.882;8.430;2022-12-29T19:07:29;8.50;;;3.17;;
6638;SDS011;3355;52.882;8.430;2022-12-29T19:09:55;6.63;;;3.37;;
6638;SDS011;3355;52.882;8.430;2022-12-29T19:12:23;7.27;;;2.73;;
6638;SDS011;3355;52.882;8.430;2022-12-29T19:14:52;7.97;;;2.37;;
6638;SDS011;3355;52.882;8.430;2022-12-29T19:17:29;8.13;;;3.30;;
6638;SDS011;3355;52.882;8.430;2022-12-29T19:21:08;4.20;;;2.60;;
6638;SDS011;3355;52.882;8.430;2022-12-29T19:23:25;9.50;;;2.70;;
6638;SDS011;3355;52.882;8.430;2022-12-29T19:25:52;5.80;;;3.10;;
6638;SDS011;3355;52.882;8.430;2022-12-29T19:28:22;5.33;;;2.90;;
6638;SDS011;3355;52.882;8.430;2022-12-29T19:30:53;6.20;;;3.80;;
6638;SDS011;3355;52.882;8.430;2022-12-29T19:33:21;4.87;;;2.57;;
6638;SDS011;3355;52.882;8.430;2022-12-29T19:38:35;5.10;;;2.30;;
6638;SDS011;3355;52.882;8.430;2022-12-29T19:41:05;8.57;;;2.73;;
6638;SDS011;3355;52.882;8.430;2022-12-29T19:43:46;6.77;;;2.43;;
6638;SDS011;3355;52.882;8.430;2022-12-29T19:46:17;8.60;;;2.63;;
6638;SDS011;3355;52.882;8.430;2022-12-29T19:48:45;3.50;;;2.30;;
6638;SDS011;3355;52.882;8.430;2022-12-29T19:54:29;8.60;;;2.33;;
6638;SDS011;3355;52.882;8.430;2022-12-29T19:57:02;4.67;;;2.80;;
6638;SDS011;3355;52.882;8.430;2022-12-29T19:59:53;13.03;;;3.00;;
6638;SDS011;3355;52.882;8.430;2022-12-29T20:02:22;5.40;;;2.70;;
6638;SDS011;3355;52.882;8.430;2022-12-29T20:05:01;6.17;;;2.67;;
6638;SDS011;3355;52.882;8.430;2022-12-29T20:07:29;6.67;;;2.67;;
6638;SDS011;3355;52.882;8.430;2022-12-29T20:10:20;5.23;;;2.03;;
6638;SDS011;3355;52.882;8.430;2022-12-29T20:12:56;7.47;;;3.00;;
6638;SDS011;3355;52.882;8.430;2022-12-29T20:15:25;4.20;;;2.30;;
6638;SDS011;3355;52.882;8.430;2022-12-29T20:17:53;5.83;;;2.70;;
6638;SDS011;3355;52.882;8.430;2022-12-29T20:20:42;7.50;;;2.37;;
6638;SDS011;3355;52.882;8.430;2022-12-29T20:23:36;4.37;;;2.03;;
6638;SDS011;3355;52.882;8.430;2022-12-29T20:26:04;5.67;;;2.70;;
6638;SDS011;3355;52.882;8.430;2022-12-29T20:28:33;5.27;;;2.30;;
6638;SDS011;3355;52.882;8.430;2022-12-29T20:31:06;8.33;;;2.40;;
6638;SDS011;3355;52.882;8.430;2022-12-29T20:34:01;6.20;;;2.83;;
6638;SDS011;3355;52.882;8.430;2022-12-29T20:36:48;3.23;;;1.67;;
6638;SDS011;3355;52.882;8.430;2022-12-29T20:39:38;4.40;;;1.20;;
6638;SDS011;3355;52.882;8.430;2022-12-29T20:42:11;5.10;;;1.40;;
6638;SDS011;3355;52.882;8.430;2022-12-29T20:44:38;3.57;;;1.40;;
6638;SDS011;3355;52.882;8.430;2022-12-29T20:47:05;3.13;;;1.10;;
6638;SDS011;3355;52.882;8.430;2022-12-29T20:49:36;6.37;;;1.80;;
6638;SDS011;3355;52.882;8.430;2022-12-29T20:55:32;3.90;;;1.70;;
6638;SDS011;3355;52.882;8.430;2022-12-29T20:58:20;4.10;;;1.70;;
6638;SDS011;3355;52.882;8.430;2022-12-29T21:00:54;8.77;;;2.20;;
6638;SDS011;3355;52.882;8.430;2022-12-29T21:03:25;4.47;;;2.30;;
6638;SDS011;3355;52.882;8.430;2022-12-29T21:06:10;5.20;;;1.80;;
6638;SDS011;3355;52.882;8.430;2022-12-29T21:08:40;6.53;;;1.90;;
6638;SDS011;3355;52.882;8.430;2022-12-29T21:11:08;4.90;;;1.93;;
6638;SDS011;3355;52.882;8.430;2022-12-29T21:17:20;3.97;;;2.20;;
6638;SDS011;3355;52.882;8.430;2022-12-29T21:19:56;5.33;;;2.20;;
6638;SDS011;3355;52.882;8.430;2022-12-29T21:22:30;8.13;;;2.50;;
6638;SDS011;3355;52.882;8.430;2022-12-29T21:25:08;6.03;;;2.60;;
6638;SDS011;3355;52.882;8.430;2022-12-29T21:27:47;5.93;;;2.10;;
6638;SDS011;3355;52.882;8.430;2022-12-29T21:30:19;7.73;;;2.40;;
6638;SDS011;3355;52.882;8.430;2022-12-29T21:32:53;6.37;;;2.80;;
6638;SDS011;3355;52.882;8.430;2022-12-29T21:35:33;6.87;;;2.27;;
6638;SDS011;3355;52.882;8.430;2022-12-29T21:38:16;7.33;;;5.03;;
6638;SDS011;3355;52.882;8.430;2022-12-29T21:47:00;4.17;;;2.17;;
6638;SDS011;3355;52.882;8.430;2022-12-29T21:49:27;6.07;;;2.60;;
6638;SDS011;3355;52.882;8.430;2022-12-29T21:51:53;11.77;;;3.73;;
6638;SDS011;3355;52.882;8.430;2022-12-29T21:54:25;7.50;;;3.37;;
6638;SDS011;3355;52.882;8.430;2022-12-29T21:57:11;5.67;;;2.80;;
6638;SDS011;3355;52.882;8.430;2022-12-29T22:00:02;7.40;;;3.03;;
6638;SDS011;3355;52.882;8.430;2022-12-29T22:02:51;7.20;;;2.80;;
6638;SDS011;3355;52.882;8.430;2022-12-29T22:05:41;7.13;;;2.87;;
6638;SDS011;3355;52.882;8.430;2022-12-29T22:08:28;6.13;;;4.40;;
6638;SDS011;3355;52.882;8.430;2022-12-29T22:11:14;6.60;;;2.90;;
6638;SDS011;3355;52.882;8.430;2022-12-29T22:13:58;7.40;;;3.13;;
6638;SDS011;3355;52.882;8.430;2022-12-29T22:16:25;9.20;;;2.80;;
6638;SDS011;3355;52.882;8.430;2022-12-29T22:18:52;5.63;;;2.50;;
6638;SDS011;3355;52.882;8.430;2022-12-29T22:21:19;6.83;;;2.50;;
6638;SDS011;3355;52.882;8.430;2022-12-29T22:23:46;6.70;;;2.83;;
6638;SDS011;3355;52.882;8.430;2022-12-29T22:29:30;7.40;;;2.63;;
6638;SDS011;3355;52.882;8.430;2022-12-29T22:32:09;6.10;;;2.57;;
6638;SDS011;3355;52.882;8.430;2022-12-29T22:34:35;8.27;;;2.20;;
6638;SDS011;3355;52.882;8.430;2022-12-29T22:40:10;10.10;;;2.67;;
6638;SDS011;3355;52.882;8.430;2022-12-29T22:43:05;8.57;;;2.10;;
6638;SDS011;3355;52.882;8.430;2022-12-29T22:45:32;12.83;;;3.77;;
6638;SDS011;3355;52.882;8.430;2022-12-29T22:47:58;6.73;;;2.50;;
6638;SDS011;3355;52.882;8.430;2022-12-29T22:50:25;6.73;;;2.73;;
6638;SDS011;3355;52.882;8.430;2022-12-29T22:52:51;9.60;;;2.47;;
6638;SDS011;3355;52.882;8.430;2022-12-29T22:55:18;7.73;;;2.30;;
6638;SDS011;3355;52.882;8.430;2022-12-29T22:57:44;9.20;;;2.70;;
6638;SDS011;3355;52.882;8.430;2022-12-29T23:00:13;7.33;;;2.90;;
6638;SDS011;3355;52.882;8.430;2022-12-29T23:02:40;6.90;;;2.30;;
6638;SDS011;3355;52.882;8.430;2022-12-29T23:05:10;13.47;;;3.50;;
6638;SDS011;3355;52.882;8.430;2022-12-29T23:07:41;4.43;;;2.13;;
6638;SDS011;3355;52.882;8.430;2022-12-29T23:10:09;14.90;;;3.67;;
6638;SDS011;3355;52.882;8.430;2022-12-29T23:12:35;7.43;;;2.67;;
6638;SDS011;3355;52.882;8.430;2022-12-29T23:15:02;14.60;;;3.00;;
6638;SDS011;3355;52.882;8.430;2022-12-29T23:17:31;10.00;;;2.57;;
6638;SDS011;3355;52.882;8.430;2022-12-29T23:19:58;6.33;;;2.27;;
6638;SDS011;3355;52.882;8.430;2022-12-29T23:22:24;6.93;;;3.50;;
6638;SDS011;3355;52.882;8.430;2022-12-29T23:24:54;10.67;;;2.77;;
6638;SDS011;3355;52.882;8.430;2022-12-29T23:27:23;11.43;;;3.87;;
6638;SDS011;3355;52.882;8.430;2022-12-29T23:29:49;10.00;;;2.83;;
6638;SDS011;3355;52.882;8.430;2022-12-29T23:32:19;9.00;;;3.23;;
6638;SDS011;3355;52.882;8.430;2022-12-29T23:34:48;5.83;;;2.50;;
6638;SDS011;3355;52.882;8.430;2022-12-29T23:37:14;10.97;;;3.17;;